createdAt,value
2019-03-24T00:01:40.660Z,39.87
2019-03-24T00:04:02.195Z,38.03
2019-03-24T00:06:32.790Z,37.87
2019-03-24T00:09:04.268Z,39.30
2019-03-24T00:11:37.568Z,37.77
2019-03-24T00:14:10.246Z,39.93
2019-03-24T00:16:40.776Z,38.73
2019-03-24T00:19:15.661Z,38.80
2019-03-24T00:21:46.318Z,37.90
2019-03-24T00:24:18.246Z,39.80
2019-03-24T00:26:52.222Z,39.13
2019-03-24T00:29:22.958Z,35.70
2019-03-24T00:31:55.192Z,37.63
2019-03-24T00:34:27.386Z,34.60
2019-03-24T00:36:59.202Z,34.80
2019-03-24T00:39:33.808Z,38.63
2019-03-24T00:42:04.849Z,37.33
2019-03-24T00:44:35.465Z,37.70
2019-03-24T00:47:05.992Z,36.03
2019-03-24T00:49:36.517Z,37.57
2019-03-24T00:52:11.921Z,38.37
2019-03-24T00:54:45.548Z,38.07
2019-03-24T00:57:16.190Z,38.27
2019-03-24T00:59:46.740Z,37.07
2019-03-24T01:02:18.379Z,36.13
2019-03-24T01:04:48.934Z,35.93
2019-03-24T01:07:20.559Z,38.50
2019-03-24T01:09:52.871Z,39.53
2019-03-24T01:12:23.449Z,38.53
2019-03-24T01:14:54.880Z,37.93
2019-03-24T01:17:32.581Z,36.87
2019-03-24T01:20:04.523Z,35.10
2019-03-24T01:22:37.177Z,33.53
2019-03-24T01:25:15.055Z,36.33
2019-03-24T01:27:47.822Z,36.00
2019-03-24T01:30:18.873Z,35.17
2019-03-24T01:32:51.075Z,36.53
2019-03-24T01:35:22.933Z,34.13
2019-03-24T01:38:00.694Z,33.47
2019-03-24T01:40:32.511Z,35.17
2019-03-24T01:43:08.337Z,32.80
2019-03-24T01:45:38.879Z,34.80
2019-03-24T01:48:09.419Z,36.07
2019-03-24T01:50:39.963Z,33.80
2019-03-24T01:53:13.582Z,34.17
2019-03-24T01:55:48.133Z,35.40
2019-03-24T01:58:18.686Z,34.40
2019-03-24T02:00:51.075Z,32.30
2019-03-24T02:03:21.840Z,33.03
2019-03-24T02:05:55.486Z,33.70
2019-03-24T02:08:26.083Z,33.97
2019-03-24T02:10:58.624Z,33.70
2019-03-24T02:13:31.782Z,32.37
2019-03-24T02:16:09.240Z,34.33
2019-03-24T02:18:37.312Z,31.60
2019-03-24T02:21:07.946Z,34.30
2019-03-24T02:23:40.278Z,34.37
2019-03-24T02:26:15.652Z,33.53
2019-03-24T02:28:46.172Z,32.13
2019-03-24T02:31:18.396Z,35.30
2019-03-24T02:33:48.965Z,31.67
2019-03-24T02:36:22.896Z,35.77
2019-03-24T02:38:55.939Z,32.27
2019-03-24T02:41:25.819Z,32.27
2019-03-24T02:43:59.463Z,31.37
2019-03-24T02:46:30.157Z,34.27
2019-03-24T02:49:02.805Z,32.50
2019-03-24T02:51:34.404Z,31.57
2019-03-24T02:54:05.397Z,30.60
2019-03-24T02:56:37.808Z,30.90
2019-03-24T02:59:08.439Z,30.23
2019-03-24T03:01:40.208Z,31.63
2019-03-24T03:04:10.868Z,31.20
2019-03-24T03:06:41.520Z,31.77
2019-03-24T03:09:12.292Z,32.83
2019-03-24T03:11:44.362Z,30.80
2019-03-24T03:14:14.970Z,31.87
2019-03-24T03:16:45.560Z,29.73
2019-03-24T03:19:19.355Z,30.50
2019-03-24T03:21:49.986Z,29.77
2019-03-24T03:24:23.509Z,29.77
2019-03-24T03:26:56.114Z,30.90
2019-03-24T03:29:26.779Z,29.93
2019-03-24T03:31:59.158Z,28.50
2019-03-24T03:34:29.792Z,29.90
2019-03-24T03:37:02.012Z,29.67
2019-03-24T03:39:32.748Z,30.30
2019-03-24T03:42:03.624Z,28.60
2019-03-24T03:44:37.245Z,30.50
2019-03-24T03:47:07.895Z,29.93
2019-03-24T03:49:39.620Z,30.37
2019-03-24T03:52:12.602Z,28.30
2019-03-24T03:54:43.232Z,29.83
2019-03-24T03:57:16.636Z,27.60
2019-03-24T03:59:47.264Z,31.20
2019-03-24T04:02:17.776Z,31.87
2019-03-24T04:04:48.441Z,30.57
2019-03-24T04:07:22.428Z,31.20
2019-03-24T04:09:56.277Z,30.40
2019-03-24T04:12:31.334Z,30.67
2019-03-24T04:15:01.885Z,30.00
2019-03-24T04:17:36.749Z,33.83
2019-03-24T04:20:08.889Z,32.47
2019-03-24T04:22:39.415Z,33.27
2019-03-24T04:25:13.094Z,33.00
2019-03-24T04:27:46.525Z,31.70
2019-03-24T04:30:17.326Z,32.60
2019-03-24T04:32:51.391Z,29.07
2019-03-24T04:35:21.885Z,30.73
2019-03-24T04:38:00.396Z,28.97
2019-03-24T04:40:26.332Z,29.17
2019-03-24T04:42:56.856Z,28.40
2019-03-24T04:45:27.358Z,30.37
2019-03-24T04:47:57.953Z,28.20
2019-03-24T04:50:30.136Z,32.57
2019-03-24T04:53:03.414Z,28.77
2019-03-24T04:55:36.656Z,30.60
2019-03-24T04:58:09.508Z,29.73
2019-03-24T05:00:40.946Z,30.10
2019-03-24T05:03:13.312Z,29.20
2019-03-24T05:05:44.274Z,27.67
2019-03-24T05:08:15.901Z,27.10
2019-03-24T05:10:48.694Z,27.40
2019-03-24T05:13:19.393Z,26.90
2019-03-24T05:15:51.114Z,27.40
2019-03-24T05:18:23.341Z,27.90
2019-03-24T05:20:55.901Z,29.53
2019-03-24T05:23:29.106Z,28.60
2019-03-24T05:26:02.428Z,26.77
2019-03-24T05:28:32.980Z,28.40
2019-03-24T05:31:05.946Z,25.40
2019-03-24T05:33:35.819Z,25.80
2019-03-24T05:36:06.341Z,25.83
2019-03-24T05:38:39.347Z,24.17
2019-03-24T05:41:11.906Z,23.67
2019-03-24T05:43:42.256Z,23.27
2019-03-24T05:46:17.779Z,23.37
2019-03-24T05:48:51.617Z,24.33
2019-03-24T05:51:21.912Z,23.47
2019-03-24T05:53:56.882Z,25.27
2019-03-24T05:56:27.569Z,24.63
2019-03-24T05:58:58.179Z,23.67
2019-03-24T06:01:31.105Z,23.40
2019-03-24T06:04:05.943Z,22.60
2019-03-24T06:06:38.441Z,23.73
2019-03-24T06:09:08.750Z,20.53
2019-03-24T06:11:39.393Z,23.70
2019-03-24T06:14:12.925Z,23.23
2019-03-24T06:16:44.643Z,23.93
2019-03-24T06:19:16.873Z,24.37
2019-03-24T06:21:47.457Z,23.17
2019-03-24T06:24:17.991Z,23.40
2019-03-24T06:26:50.157Z,26.00
2019-03-24T06:29:20.722Z,22.80
2019-03-24T06:31:54.098Z,23.63
2019-03-24T06:34:24.705Z,22.80
2019-03-24T06:36:55.265Z,22.27
2019-03-24T06:39:27.125Z,22.50
2019-03-24T06:41:58.870Z,24.27
2019-03-24T06:44:29.405Z,24.17
2019-03-24T06:47:01.542Z,22.90
2019-03-24T06:49:34.493Z,23.27
2019-03-24T06:52:04.847Z,22.80
2019-03-24T06:54:38.699Z,23.23
2019-03-24T06:57:09.319Z,24.47
2019-03-24T06:59:39.863Z,33.17
2019-03-24T07:02:14.096Z,42.60
2019-03-24T07:04:46.214Z,26.43
2019-03-24T07:07:18.055Z,24.90
2019-03-24T07:09:52.021Z,26.27
2019-03-24T07:12:22.626Z,32.17
2019-03-24T07:14:54.941Z,25.20
2019-03-24T07:17:25.879Z,23.53
2019-03-24T07:19:57.498Z,21.73
2019-03-24T07:22:28.033Z,21.07
2019-03-24T07:24:58.574Z,23.10
2019-03-24T07:27:31.557Z,20.80
2019-03-24T07:30:07.068Z,21.73
2019-03-24T07:32:37.748Z,21.50
2019-03-24T07:35:08.888Z,20.07
2019-03-24T07:37:39.409Z,22.17
2019-03-24T07:40:15.260Z,21.90
2019-03-24T07:42:45.816Z,20.50
2019-03-24T07:45:16.522Z,20.67
2019-03-24T07:47:48.968Z,21.83
2019-03-24T07:50:21.514Z,20.80
2019-03-24T07:52:54.852Z,19.80
2019-03-24T07:55:30.196Z,19.83
2019-03-24T07:58:00.736Z,19.17
2019-03-24T08:00:39.586Z,19.10
2019-03-24T08:03:12.709Z,18.53
2019-03-24T08:05:47.468Z,19.07
2019-03-24T08:08:18.457Z,19.03
2019-03-24T08:10:49.004Z,18.43
2019-03-24T08:13:19.533Z,18.00
2019-03-24T08:15:52.815Z,17.20
2019-03-24T08:18:29.810Z,18.32
2019-03-24T08:20:57.789Z,18.67
2019-03-24T08:23:37.319Z,19.20
2019-03-24T08:26:15.307Z,19.98
2019-03-24T08:28:47.475Z,18.98
2019-03-24T08:31:17.996Z,18.67
2019-03-24T08:33:50.185Z,20.72
2019-03-24T08:36:20.797Z,22.15
2019-03-24T08:38:53.772Z,22.67
2019-03-24T08:41:24.432Z,20.02
2019-03-24T08:43:54.973Z,21.55
2019-03-24T08:46:25.578Z,21.35
2019-03-24T08:48:56.156Z,21.37
2019-03-24T08:51:26.767Z,20.88
2019-03-24T08:53:57.387Z,20.75
2019-03-24T08:56:28.078Z,21.73
2019-03-24T08:58:58.637Z,21.30
2019-03-24T09:01:29.183Z,21.60
2019-03-24T09:03:59.797Z,20.05
2019-03-24T09:06:30.402Z,21.02
2019-03-24T09:09:00.983Z,20.02
2019-03-24T09:11:31.749Z,19.90
2019-03-24T09:14:02.357Z,20.02
2019-03-24T09:16:32.915Z,21.23
2019-03-24T09:19:03.464Z,20.77
2019-03-24T09:21:34.123Z,20.62
2019-03-24T09:24:04.794Z,20.72
2019-03-24T09:26:35.411Z,21.37
2019-03-24T09:29:05.955Z,21.30
2019-03-24T09:31:36.632Z,24.25
2019-03-24T09:34:07.164Z,22.02
2019-03-24T09:36:37.760Z,22.07
2019-03-24T09:39:10.127Z,24.45
2019-03-24T09:41:40.891Z,24.07
2019-03-24T09:44:11.666Z,23.65
2019-03-24T09:46:43.378Z,23.85
2019-03-24T09:49:14.098Z,24.40
2019-03-24T09:51:44.744Z,24.30
2019-03-24T09:54:15.350Z,25.08
2019-03-24T09:56:46.193Z,27.13
2019-03-24T09:59:16.828Z,25.85
2019-03-24T10:01:47.362Z,27.07
2019-03-24T10:04:17.887Z,25.37
2019-03-24T10:06:48.575Z,26.52
2019-03-24T10:09:19.192Z,27.85
2019-03-24T10:11:49.876Z,28.77
2019-03-24T10:14:20.414Z,28.73
2019-03-24T10:16:51.048Z,29.80
2019-03-24T10:19:21.800Z,31.40
2019-03-24T10:21:52.364Z,30.30
2019-03-24T10:24:22.889Z,28.47
2019-03-24T10:26:53.542Z,29.13
2019-03-24T10:29:24.161Z,31.90
2019-03-24T10:31:54.784Z,30.33
2019-03-24T10:34:26.917Z,30.47
2019-03-24T10:36:57.563Z,30.00
2019-03-24T10:39:28.193Z,30.93
2019-03-24T10:41:58.947Z,31.80
2019-03-24T10:44:29.724Z,31.00
2019-03-24T10:47:00.353Z,30.63
2019-03-24T10:49:31.064Z,31.10
2019-03-24T10:52:03.553Z,33.17
2019-03-24T10:54:36.109Z,33.57
2019-03-24T10:57:13.635Z,31.90
2019-03-24T10:59:46.847Z,32.30
2019-03-24T11:02:19.839Z,34.53
2019-03-24T11:04:52.971Z,34.97
2019-03-24T11:07:25.295Z,33.97
2019-03-24T11:09:55.992Z,33.50
2019-03-24T11:12:31.404Z,36.43
2019-03-24T11:15:06.062Z,34.93
2019-03-24T11:17:36.703Z,35.23
2019-03-24T11:20:08.345Z,37.90
2019-03-24T11:22:41.154Z,34.97
2019-03-24T11:25:16.089Z,35.83
2019-03-24T11:27:46.985Z,35.37
2019-03-24T11:30:17.751Z,37.43
2019-03-24T11:32:48.378Z,35.30
2019-03-24T11:35:19.023Z,35.97
2019-03-24T11:37:49.660Z,35.77
2019-03-24T11:40:20.171Z,35.23
2019-03-24T11:43:01.118Z,35.47
2019-03-24T11:45:31.728Z,35.60
2019-03-24T11:48:04.826Z,36.83
2019-03-24T11:50:43.144Z,36.33
2019-03-24T11:53:15.360Z,35.43
2019-03-24T11:55:49.875Z,35.50
2019-03-24T11:58:20.588Z,33.87
2019-03-24T12:00:51.295Z,37.23
2019-03-24T12:03:21.945Z,34.17
2019-03-24T12:05:52.613Z,34.37
2019-03-24T12:08:24.268Z,33.57
2019-03-24T12:10:54.933Z,34.80
2019-03-24T12:13:27.501Z,33.60
2019-03-24T12:15:57.842Z,32.30
2019-03-24T12:18:28.518Z,36.10
2019-03-24T12:21:01.393Z,30.33
2019-03-24T12:23:32.038Z,31.50
2019-03-24T12:26:03.690Z,31.07
2019-03-24T12:28:35.408Z,32.90
2019-03-24T12:31:06.049Z,31.23
2019-03-24T12:33:37.035Z,33.53
2019-03-24T12:36:09.237Z,32.10
2019-03-24T12:38:42.848Z,30.77
2019-03-24T12:41:13.263Z,33.77
2019-03-24T12:43:44.982Z,30.67
2019-03-24T12:46:15.702Z,32.17
2019-03-24T12:48:46.410Z,31.90
2019-03-24T12:51:18.220Z,31.00
2019-03-24T12:53:49.864Z,33.60
2019-03-24T12:56:20.512Z,36.80
2019-03-24T12:58:51.157Z,32.47
2019-03-24T13:01:21.855Z,33.80
2019-03-24T13:03:52.427Z,33.93
2019-03-24T13:06:23.075Z,32.57
2019-03-24T13:08:53.773Z,34.37
2019-03-24T13:11:24.375Z,30.47
2019-03-24T13:13:58.088Z,30.77
2019-03-24T13:16:28.727Z,31.90
2019-03-24T13:18:59.290Z,31.30
2019-03-24T13:21:29.901Z,29.70
2019-03-24T13:24:00.550Z,29.40
2019-03-24T13:26:33.559Z,32.33
2019-03-24T13:29:04.210Z,29.97
2019-03-24T13:31:34.878Z,30.70
2019-03-24T13:34:05.545Z,31.20
2019-03-24T13:36:36.169Z,32.67
2019-03-24T13:39:07.915Z,32.40
2019-03-24T13:41:40.353Z,34.33
2019-03-24T13:44:17.002Z,34.80
2019-03-24T13:46:46.925Z,33.67
2019-03-24T13:49:20.117Z,35.43
2019-03-24T13:51:50.487Z,33.33
2019-03-24T13:54:21.106Z,34.00
2019-03-24T13:56:51.849Z,36.07
2019-03-24T13:59:22.502Z,37.47
2019-03-24T14:01:53.153Z,36.70
2019-03-24T14:04:23.792Z,35.90
2019-03-24T14:06:54.372Z,35.03
2019-03-24T14:09:25.049Z,36.30
2019-03-24T14:11:57.387Z,34.70
2019-03-24T14:14:28.025Z,35.60
2019-03-24T14:17:00.294Z,34.43
2019-03-24T14:19:33.060Z,33.90
2019-03-24T14:22:05.394Z,34.17
2019-03-24T14:24:36.075Z,36.33
2019-03-24T14:27:11.449Z,33.63
2019-03-24T14:29:42.017Z,33.03
2019-03-24T14:32:14.379Z,33.77
2019-03-24T14:34:44.942Z,33.20
2019-03-24T14:37:15.633Z,34.47
2019-03-24T14:39:46.278Z,34.50
2019-03-24T14:42:16.912Z,36.97
2019-03-24T14:44:49.146Z,34.67
2019-03-24T14:47:25.695Z,36.17
2019-03-24T14:49:56.358Z,35.93
2019-03-24T14:52:28.260Z,35.03
2019-03-24T14:55:03.095Z,34.50
2019-03-24T14:57:35.766Z,35.07
2019-03-24T15:00:10.024Z,33.10
2019-03-24T15:02:41.016Z,34.37
2019-03-24T15:05:15.748Z,35.20
2019-03-24T15:07:46.412Z,35.33
2019-03-24T15:10:21.607Z,34.10
2019-03-24T15:12:53.958Z,34.50
2019-03-24T15:15:25.956Z,34.40
2019-03-24T15:17:56.662Z,34.90
2019-03-24T15:20:27.301Z,36.20
2019-03-24T15:23:01.240Z,36.07
2019-03-24T15:25:33.228Z,35.90
2019-03-24T15:28:06.565Z,33.97
2019-03-24T15:30:38.436Z,35.10
2019-03-24T15:33:10.701Z,34.60
2019-03-24T15:35:41.317Z,33.97
2019-03-24T15:38:11.971Z,35.53
2019-03-24T15:40:42.692Z,37.10
2019-03-24T15:43:14.223Z,36.23
2019-03-24T15:45:46.041Z,35.80
2019-03-24T15:48:19.598Z,37.10
2019-03-24T15:50:50.244Z,35.87
2019-03-24T15:53:20.940Z,35.30
2019-03-24T15:55:51.582Z,34.73
2019-03-24T15:58:22.318Z,35.90
2019-03-24T16:00:55.345Z,38.57
2019-03-24T16:03:26.075Z,37.23
2019-03-24T16:05:56.745Z,37.10
2019-03-24T16:08:27.503Z,37.20
2019-03-24T16:10:58.125Z,37.30
2019-03-24T16:13:32.041Z,36.30
2019-03-24T16:16:02.694Z,36.17
2019-03-24T16:18:33.339Z,37.50
2019-03-24T16:21:04.799Z,37.10
2019-03-24T16:23:35.429Z,37.93
2019-03-24T16:26:06.479Z,39.90
2019-03-24T16:28:38.877Z,40.27
2019-03-24T16:31:09.550Z,38.30
2019-03-24T16:33:41.928Z,33.93
2019-03-24T16:36:12.627Z,36.87
2019-03-24T16:38:48.905Z,36.37
2019-03-24T16:41:33.930Z,35.73
2019-03-24T16:44:08.398Z,36.30
2019-03-24T16:46:42.816Z,36.30
2019-03-24T16:49:13.482Z,36.57
2019-03-24T16:51:44.159Z,35.57
2019-03-24T16:54:14.824Z,34.30
2019-03-24T16:56:45.476Z,36.33
2019-03-24T16:59:17.812Z,35.70
2019-03-24T17:01:48.552Z,35.67
2019-03-24T17:04:19.263Z,35.57
2019-03-24T17:06:51.108Z,35.90
2019-03-24T17:09:23.480Z,35.87
2019-03-24T17:11:56.996Z,36.43
2019-03-24T17:14:28.305Z,34.73
2019-03-24T17:17:03.017Z,35.37
2019-03-24T17:19:33.645Z,34.10
2019-03-24T17:22:04.371Z,33.93
2019-03-24T17:24:34.991Z,33.13
2019-03-24T17:27:06.023Z,34.97
2019-03-24T17:29:38.716Z,35.17
2019-03-24T17:32:13.857Z,34.80
2019-03-24T17:34:49.013Z,34.40
2019-03-24T17:37:23.183Z,36.53
2019-03-24T17:39:50.621Z,42.17
2019-03-24T17:42:24.063Z,56.40
2019-03-24T17:45:01.889Z,84.67
2019-03-24T17:47:34.464Z,71.47
2019-03-24T17:50:05.533Z,52.80
2019-03-24T17:52:36.306Z,41.40
2019-03-24T17:55:09.015Z,38.17
2019-03-24T17:57:45.487Z,37.37
2019-03-24T18:00:19.419Z,37.13
2019-03-24T18:02:51.770Z,39.10
2019-03-24T18:05:22.706Z,37.43
2019-03-24T18:07:58.197Z,38.47
2019-03-24T18:10:28.850Z,39.47
2019-03-24T18:13:04.315Z,38.40
2019-03-24T18:15:35.176Z,37.93
2019-03-24T18:18:11.624Z,36.07
2019-03-24T18:20:44.071Z,38.97
2019-03-24T18:23:15.217Z,39.43
2019-03-24T18:25:47.779Z,41.07
2019-03-24T18:28:23.155Z,36.47
2019-03-24T18:30:53.685Z,34.37
2019-03-24T18:33:24.376Z,33.40
2019-03-24T18:36:01.388Z,34.87
2019-03-24T18:38:35.071Z,38.10
2019-03-24T18:41:06.239Z,36.00
2019-03-24T18:43:38.573Z,36.17
2019-03-24T18:46:10.436Z,38.00
2019-03-24T18:48:41.139Z,34.73
2019-03-24T18:51:14.819Z,36.73
2019-03-24T18:53:47.019Z,36.33
2019-03-24T18:56:17.653Z,36.70
2019-03-24T18:58:48.235Z,34.33
2019-03-24T19:01:20.159Z,35.83
2019-03-24T19:03:51.000Z,32.97
2019-03-24T19:06:21.605Z,35.67
2019-03-24T19:08:52.157Z,36.03
2019-03-24T19:11:22.999Z,34.43
2019-03-24T19:13:53.652Z,34.20
2019-03-24T19:16:24.518Z,34.83
2019-03-24T19:18:55.405Z,33.40
2019-03-24T19:21:26.474Z,36.77
2019-03-24T19:23:57.085Z,35.50
2019-03-24T19:26:27.906Z,34.10
2019-03-24T19:29:00.058Z,34.60
2019-03-24T19:31:30.984Z,36.63
2019-03-24T19:34:01.892Z,36.00
2019-03-24T19:36:33.182Z,41.70
2019-03-24T19:39:05.053Z,55.67
2019-03-24T19:41:35.679Z,53.77
2019-03-24T19:44:06.414Z,46.63
2019-03-24T19:46:38.430Z,42.80
2019-03-24T19:49:09.132Z,43.40
2019-03-24T19:51:40.080Z,42.40
2019-03-24T19:54:10.872Z,44.70
2019-03-24T19:56:41.595Z,42.63
2019-03-24T19:59:17.162Z,47.70
2019-03-24T20:01:45.335Z,45.90
2019-03-24T20:04:16.081Z,46.60
2019-03-24T20:06:46.738Z,47.93
2019-03-24T20:09:19.837Z,47.73
2019-03-24T20:11:50.569Z,46.27
2019-03-24T20:14:21.282Z,48.80
2019-03-24T20:16:51.939Z,50.07
2019-03-24T20:19:24.746Z,50.93
2019-03-24T20:21:55.292Z,47.77
2019-03-24T20:24:25.923Z,49.87
2019-03-24T20:26:57.360Z,48.50
2019-03-24T20:29:28.502Z,49.97
2019-03-24T20:31:59.153Z,50.83
2019-03-24T20:34:29.841Z,49.40
2019-03-24T20:37:00.877Z,47.80
2019-03-24T20:39:31.581Z,50.60
2019-03-24T20:42:02.220Z,50.30
2019-03-24T20:44:32.941Z,50.77
2019-03-24T20:47:07.933Z,50.23
2019-03-24T20:49:38.694Z,52.10
2019-03-24T20:52:09.271Z,50.83
2019-03-24T20:54:39.893Z,50.10
2019-03-24T20:57:10.655Z,49.80
2019-03-24T20:59:41.605Z,50.10
2019-03-24T21:02:12.192Z,51.03
2019-03-24T21:04:43.192Z,52.13
2019-03-24T21:07:13.767Z,53.00
2019-03-24T21:09:46.598Z,51.37
2019-03-24T21:12:17.066Z,54.20
2019-03-24T21:14:47.694Z,52.53
2019-03-24T21:17:18.355Z,53.20
2019-03-24T21:19:51.067Z,52.03
2019-03-24T21:22:21.734Z,50.90
2019-03-24T21:24:54.898Z,50.73
2019-03-24T21:27:25.501Z,51.50
2019-03-24T21:29:56.166Z,52.80
2019-03-24T21:32:26.822Z,48.67
2019-03-24T21:34:59.584Z,50.67
2019-03-24T21:37:30.414Z,49.33
2019-03-24T21:40:01.997Z,47.17
2019-03-24T21:42:37.392Z,46.00
2019-03-24T21:45:11.113Z,47.50
2019-03-24T21:47:45.178Z,47.10
2019-03-24T21:50:17.689Z,48.10
2019-03-24T21:52:48.222Z,48.60
2019-03-24T21:55:25.192Z,49.93
2019-03-24T21:57:57.825Z,49.90
2019-03-24T22:00:36.084Z,49.00
2019-03-24T22:03:07.688Z,48.87
2019-03-24T22:05:38.252Z,49.40
2019-03-24T22:08:11.618Z,50.77
2019-03-24T22:10:45.449Z,50.80
2019-03-24T22:13:17.696Z,51.00
2019-03-24T22:15:51.141Z,50.30
2019-03-24T22:18:26.873Z,51.60
2019-03-24T22:21:00.378Z,51.97
2019-03-24T22:23:32.656Z,54.20
2019-03-24T22:26:05.807Z,52.03
2019-03-24T22:28:39.429Z,51.50
2019-03-24T22:31:10.027Z,51.40
2019-03-24T22:33:41.009Z,51.43
2019-03-24T22:36:11.647Z,50.97
2019-03-24T22:38:44.149Z,51.33
2019-03-24T22:41:17.714Z,49.93
2019-03-24T22:43:48.880Z,51.40
2019-03-24T22:46:20.580Z,51.33
2019-03-24T22:48:55.565Z,52.27
2019-03-24T22:51:28.242Z,53.40
2019-03-24T22:54:03.155Z,54.57
2019-03-24T22:56:31.047Z,52.73
2019-03-24T22:59:01.663Z,52.40
2019-03-24T23:01:32.427Z,50.37
2019-03-24T23:04:03.165Z,50.67
2019-03-24T23:06:37.429Z,49.13
2019-03-24T23:09:11.036Z,48.63
2019-03-24T23:11:42.539Z,48.00
2019-03-24T23:14:20.516Z,48.03
2019-03-24T23:16:52.256Z,49.63
2019-03-24T23:19:22.929Z,51.93
2019-03-24T23:21:57.948Z,49.53
2019-03-24T23:24:27.746Z,50.67
2019-03-24T23:27:01.367Z,49.90
2019-03-24T23:29:31.965Z,51.77
2019-03-24T23:32:06.927Z,52.87
2019-03-24T23:34:39.458Z,53.37
2019-03-24T23:37:15.342Z,52.30
2019-03-24T23:39:46.531Z,55.73
2019-03-24T23:42:18.482Z,55.17
2019-03-24T23:44:49.007Z,53.00
2019-03-24T23:47:20.911Z,56.17
2019-03-24T23:49:54.906Z,52.13
2019-03-24T23:52:26.726Z,56.47
2019-03-24T23:55:00.416Z,57.23
2019-03-24T23:57:31.002Z,54.43
